Terminal Aerodrome Forecast
Issued by NWS Twin Cities, MN

Home | Current Version | Previous Version | Text Only | Print | Product List | Glossary Off
Versions: 1 2 3 4 5 6 7 8 9 10 11 12 13 14 15 16 17 18

154
FTUS43 KMPX 161133
TAFEAU
TAF
KEAU 161133Z 1612/1712 15007KT 6SM -SHRA SCT050 BKN100
     FM161500 12007KT P6SM OVC070
     FM170000 12007KT P6SM VCSH SCT035 OVC060
     FM170300 12006KT 5SM -RA BR VCTS SCT015 OVC025CB
      TEMPO 1703/1706 3SM TSRA BKN015CB
     FM170600 11006KT 4SM -RA BR OVC008=

USA.gov is the U.S. government's official web portal to all federal, state and local government web resources and services.